MMSL

Cabo San Lucas International Airport

Airport
ICAO code
MMSL
IATA Code
CSL
Summary
ICAO Region
CARSAM
ICAO Territory
Location

Cabo San Lucas, Baja California Sur

Serving
Cabo San Lucas
Elevation
459 ft
Coordinates
22° 56' 51" N , 109° 56' 13" W
KCC
Metar
MMSL 231448Z 21006KT 9SM SKC 27/14 A2988

Cabo San Lucas International Airport is a small international aerodrome located 4.5 miles (7.2 km) northwest of Cabo San Lucas in Baja California Sur, Mexico.

Climatology

Hot Desert Climate (Köppen climate classification BWh)

Runways

Designator Length Width Surface Rops
11/29 1500 30 ASP No/No

Airport map

Aerial View

SKYbrary Partners:

Safety knowledge contributed by: